createdAt,value
2023-04-07T00:00:48.847Z,98879.98
2023-04-07T00:03:20.458Z,98883.73
2023-04-07T00:05:49.410Z,98883.79
2023-04-07T00:08:18.371Z,98889.27
2023-04-07T00:10:47.468Z,98887.88
2023-04-07T00:13:16.830Z,98888.49
2023-04-07T00:15:45.921Z,98887.09
2023-04-07T00:18:14.989Z,98886.01
2023-04-07T00:20:43.704Z,98887.02
2023-04-07T00:23:12.784Z,98883.08
2023-04-07T00:25:41.449Z,98880.21
2023-04-07T00:28:10.688Z,98879.77
2023-04-07T00:30:39.592Z,98876.67
2023-04-07T00:33:09.819Z,98881.08
2023-04-07T00:35:38.726Z,98879.51
2023-04-07T00:38:07.584Z,98882.55
2023-04-07T00:40:36.807Z,98886.25
2023-04-07T00:43:05.954Z,98885.84
2023-04-07T00:45:34.654Z,98887.70
2023-04-07T00:48:03.672Z,98885.55
2023-04-07T00:50:32.516Z,98883.23
2023-04-07T00:53:02.677Z,98882.13
2023-04-07T00:55:31.791Z,98882.63
2023-04-07T00:58:00.869Z,98887.80
2023-04-07T01:00:32.072Z,98885.74
2023-04-07T01:03:10.234Z,98882.13
2023-04-07T01:05:55.223Z,98885.89
2023-04-07T01:08:27.234Z,98885.50
2023-04-07T01:11:18.840Z,98887.85
2023-04-07T01:13:51.339Z,98884.13
2023-04-07T01:16:34.856Z,98881.02
2023-04-07T01:19:31.555Z,98880.12
2023-04-07T01:22:01.355Z,98879.63
2023-04-07T01:25:16.121Z,98876.34
2023-04-07T01:27:55.706Z,98879.98
2023-04-07T01:30:28.058Z,98881.15
2023-04-07T01:33:00.354Z,98886.27
2023-04-07T01:35:32.967Z,98885.65
2023-04-07T01:38:03.149Z,98881.77
2023-04-07T01:40:35.940Z,98871.91
2023-04-07T01:43:06.477Z,98871.81
2023-04-07T01:45:36.991Z,98870.02
2023-04-07T01:48:07.969Z,98872.48
2023-04-07T01:50:39.147Z,98872.61
2023-04-07T01:53:08.727Z,98873.05
2023-04-07T01:55:38.909Z,98866.02
2023-04-07T01:58:08.366Z,98863.59
2023-04-07T02:00:37.402Z,98863.91
2023-04-07T02:03:21.472Z,98865.66
2023-04-07T02:05:55.296Z,98864.14
2023-04-07T02:08:30.051Z,98862.96
2023-04-07T02:11:04.196Z,98864.23
2023-04-07T02:13:34.660Z,98866.38
2023-04-07T02:16:04.038Z,98873.36
2023-04-07T02:18:34.094Z,98876.39
2023-04-07T02:21:05.074Z,98873.45
2023-04-07T02:23:36.586Z,98877.01
2023-04-07T02:26:05.690Z,98875.17
2023-04-07T02:28:34.752Z,98871.23
2023-04-07T02:31:03.732Z,98873.74
2023-04-07T02:33:32.739Z,98876.71
2023-04-07T02:36:01.858Z,98874.95
2023-04-07T02:38:31.239Z,98876.04
2023-04-07T02:41:00.339Z,98873.77
2023-04-07T02:43:29.529Z,98876.92
2023-04-07T02:45:58.228Z,98875.70
2023-04-07T02:48:27.408Z,98875.73
2023-04-07T02:50:56.426Z,98870.94
2023-04-07T02:53:25.868Z,98874.48
2023-04-07T02:55:54.936Z,98876.84
2023-04-07T02:58:23.761Z,98874.70
2023-04-07T03:00:52.673Z,98871.80
2023-04-07T03:03:21.945Z,98872.82
2023-04-07T03:05:50.915Z,98875.70
2023-04-07T03:08:19.844Z,98878.66
2023-04-07T03:10:49.049Z,98871.65
2023-04-07T03:13:20.286Z,98876.45
2023-04-07T03:15:49.421Z,98881.05
2023-04-07T03:18:18.470Z,98879.83
2023-04-07T03:20:49.429Z,98880.98
2023-04-07T03:23:18.229Z,98880.08
2023-04-07T03:25:48.802Z,98876.62
2023-04-07T03:28:17.963Z,98879.02
2023-04-07T03:30:47.465Z,98873.92
2023-04-07T03:33:17.071Z,98873.14
2023-04-07T03:35:45.776Z,98871.17
2023-04-07T03:38:14.697Z,98869.99
2023-04-07T03:40:43.637Z,98868.68
2023-04-07T03:43:15.676Z,98868.05
2023-04-07T03:45:44.797Z,98863.91
2023-04-07T03:48:13.982Z,98865.02
2023-04-07T03:50:42.830Z,98863.68
2023-04-07T03:53:11.799Z,98862.69
2023-04-07T03:55:41.021Z,98856.94
2023-04-07T03:58:10.418Z,98862.86
2023-04-07T04:00:39.693Z,98862.32
2023-04-07T04:03:09.851Z,98867.00
2023-04-07T04:05:38.833Z,98865.81
2023-04-07T04:08:08.191Z,98864.29
2023-04-07T04:10:37.812Z,98862.30
2023-04-07T04:13:08.790Z,98862.50
2023-04-07T04:15:37.971Z,98864.44
2023-04-07T04:18:07.455Z,98866.11
2023-04-07T04:20:37.853Z,98867.11
2023-04-07T04:23:06.819Z,98863.45
2023-04-07T04:25:36.304Z,98864.83
2023-04-07T04:28:05.440Z,98869.16
2023-04-07T04:30:34.501Z,98865.33
2023-04-07T04:33:03.542Z,98864.47
2023-04-07T04:35:32.796Z,98865.40
2023-04-07T04:38:01.620Z,98870.06
2023-04-07T04:40:30.325Z,98869.73
2023-04-07T04:42:59.129Z,98871.41
2023-04-07T04:45:28.176Z,98873.13
2023-04-07T04:47:57.531Z,98875.14
2023-04-07T04:50:26.308Z,98873.38
2023-04-07T04:52:55.183Z,98867.70
2023-04-07T04:55:24.014Z,98867.52
2023-04-07T04:57:52.853Z,98864.88
2023-04-07T05:00:21.992Z,98872.30
2023-04-07T05:02:50.981Z,98875.66
2023-04-07T05:05:20.372Z,98875.31
2023-04-07T05:07:49.401Z,98871.42
2023-04-07T05:10:18.703Z,98872.47
2023-04-07T05:12:47.868Z,98872.77
2023-04-07T05:15:17.031Z,98871.91
2023-04-07T05:17:50.821Z,98866.92
2023-04-07T05:20:21.196Z,98867.25
2023-04-07T05:22:50.338Z,98866.52
2023-04-07T05:25:19.893Z,98867.98
2023-04-07T05:27:50.209Z,98872.84
2023-04-07T05:30:19.714Z,98879.00
2023-04-07T05:32:49.459Z,98886.17
2023-04-07T05:35:18.837Z,98893.52
2023-04-07T05:37:48.786Z,98894.88
2023-04-07T05:40:18.713Z,98895.88
2023-04-07T05:42:47.916Z,98895.39
2023-04-07T05:45:17.026Z,98894.30
2023-04-07T05:47:50.526Z,98890.00
2023-04-07T05:50:19.668Z,98886.84
2023-04-07T05:52:48.684Z,98890.09
2023-04-07T05:55:18.069Z,98893.23
2023-04-07T05:57:47.949Z,98891.73
2023-04-07T06:00:18.221Z,98894.39
2023-04-07T06:02:47.409Z,98895.83
2023-04-07T06:05:16.674Z,98898.52
2023-04-07T06:07:45.982Z,98902.23
2023-04-07T06:10:15.999Z,98898.21
2023-04-07T06:12:44.983Z,98901.49
2023-04-07T06:15:14.248Z,98898.26
2023-04-07T06:17:44.272Z,98898.57
2023-04-07T06:20:14.367Z,98900.92
2023-04-07T06:22:44.052Z,98903.80
2023-04-07T06:25:14.131Z,98899.45
2023-04-07T06:27:43.301Z,98897.84
2023-04-07T06:30:12.597Z,98896.19
2023-04-07T06:32:42.397Z,98892.77
2023-04-07T06:35:12.700Z,98886.70
2023-04-07T06:37:41.815Z,98886.80
2023-04-07T06:40:11.086Z,98887.11
2023-04-07T06:42:39.858Z,98885.39
2023-04-07T06:45:09.835Z,98880.20
2023-04-07T06:47:38.947Z,98880.56
2023-04-07T06:50:08.961Z,98881.02
2023-04-07T06:52:37.842Z,98882.09
2023-04-07T06:55:08.339Z,98875.78
2023-04-07T06:57:37.126Z,98872.72
2023-04-07T07:00:08.292Z,98871.89
2023-04-07T07:02:37.143Z,98869.76
2023-04-07T07:05:06.454Z,98868.95
2023-04-07T07:07:35.060Z,98862.63
2023-04-07T07:10:04.378Z,98862.82
2023-04-07T07:12:34.262Z,98865.76
2023-04-07T07:15:03.766Z,98865.73
2023-04-07T07:17:32.520Z,98867.98
2023-04-07T07:20:01.485Z,98865.55
2023-04-07T07:22:30.420Z,98871.48
2023-04-07T07:24:59.286Z,98869.05
2023-04-07T07:27:28.072Z,98869.50
2023-04-07T07:29:57.210Z,98868.66
2023-04-07T07:32:26.415Z,98866.34
2023-04-07T07:34:55.369Z,98867.83
2023-04-07T07:37:24.686Z,98866.61
2023-04-07T07:39:53.644Z,98860.95
2023-04-07T07:42:22.848Z,98855.07
2023-04-07T07:44:52.153Z,98851.35
2023-04-07T07:47:22.771Z,98848.04
2023-04-07T07:49:54.039Z,98841.95
2023-04-07T07:52:23.026Z,98841.48
2023-04-07T07:54:52.873Z,98840.02
2023-04-07T07:57:22.404Z,98838.48
2023-04-07T07:59:52.012Z,98834.73
2023-04-07T08:02:30.324Z,98832.45
2023-04-07T08:04:59.983Z,98829.72
2023-04-07T08:07:29.177Z,98827.54
2023-04-07T08:09:58.335Z,98826.75
2023-04-07T08:12:28.338Z,98824.74
2023-04-07T08:14:57.479Z,98824.77
2023-04-07T08:17:27.108Z,98819.72
2023-04-07T08:19:56.380Z,98817.70
2023-04-07T08:22:26.452Z,98813.16
2023-04-07T08:24:56.859Z,98813.06
2023-04-07T08:27:26.198Z,98808.80
2023-04-07T08:30:07.769Z,98808.45
2023-04-07T08:32:42.273Z,98805.16
2023-04-07T08:35:12.949Z,98800.70
2023-04-07T08:37:44.852Z,98797.98
2023-04-07T08:40:14.592Z,98794.08
2023-04-07T08:42:48.055Z,98793.08
2023-04-07T08:45:19.711Z,98789.93
2023-04-07T08:47:53.785Z,98787.29
2023-04-07T08:50:26.094Z,98782.85
2023-04-07T08:52:58.281Z,98783.71
2023-04-07T08:55:28.680Z,98780.41
2023-04-07T08:58:01.563Z,98777.05
2023-04-07T09:00:33.402Z,98771.18
2023-04-07T09:03:04.266Z,98768.95
2023-04-07T09:05:34.356Z,98767.05
2023-04-07T09:08:04.948Z,98769.70
2023-04-07T09:10:34.357Z,98769.25
2023-04-07T09:13:03.981Z,98766.91
2023-04-07T09:15:33.668Z,98761.10
2023-04-07T09:18:03.560Z,98758.78
2023-04-07T09:21:05.344Z,98752.63
2023-04-07T09:23:41.297Z,98757.78
2023-04-07T09:26:26.035Z,98752.32
2023-04-07T09:28:59.218Z,98741.64
2023-04-07T09:31:48.707Z,98740.61
2023-04-07T09:34:33.136Z,98736.29
2023-04-07T09:37:02.723Z,98733.67
2023-04-07T09:39:33.220Z,98732.83
2023-04-07T09:42:09.128Z,98735.78
2023-04-07T09:44:44.780Z,98731.04
2023-04-07T09:47:14.053Z,98726.46
2023-04-07T09:49:54.704Z,98727.05
2023-04-07T09:52:47.941Z,98726.39
2023-04-07T09:55:19.714Z,98722.55
2023-04-07T09:57:51.204Z,98722.11
2023-04-07T10:00:21.484Z,98722.86
2023-04-07T10:02:51.995Z,98724.05
2023-04-07T10:05:24.052Z,98723.89
2023-04-07T10:07:55.179Z,98720.10
2023-04-07T10:10:26.798Z,98723.40
2023-04-07T10:12:58.559Z,98722.96
2023-04-07T10:15:27.827Z,98715.07
2023-04-07T10:17:57.528Z,98715.59
2023-04-07T10:20:27.614Z,98712.30
2023-04-07T10:23:07.621Z,98709.52
2023-04-07T10:25:37.834Z,98702.79
2023-04-07T10:28:10.341Z,98691.20
2023-04-07T10:30:40.180Z,98690.52
2023-04-07T10:33:10.351Z,98690.58
2023-04-07T10:36:07.926Z,98687.18
2023-04-07T10:38:37.634Z,98677.98
2023-04-07T10:41:37.145Z,98674.35
2023-04-07T10:44:08.537Z,98677.50
2023-04-07T10:47:05.654Z,98679.76
2023-04-07T10:49:36.336Z,98678.77
2023-04-07T10:52:26.849Z,98684.56
2023-04-07T10:55:31.995Z,98678.30
2023-04-07T10:58:19.785Z,98685.52
2023-04-07T11:01:02.726Z,98682.13
2023-04-07T11:03:35.450Z,98683.25
2023-04-07T11:06:11.672Z,98672.61
2023-04-07T11:08:49.264Z,98668.81
2023-04-07T11:11:39.397Z,98664.80
2023-04-07T11:14:09.314Z,98665.27
2023-04-07T11:16:46.387Z,98668.61
2023-04-07T11:19:16.125Z,98664.77
2023-04-07T11:21:45.298Z,98663.71
2023-04-07T11:24:33.646Z,98656.41
2023-04-07T11:27:03.490Z,98653.39
2023-04-07T11:29:35.172Z,98655.60
2023-04-07T11:32:06.766Z,98647.77
2023-04-07T11:34:37.669Z,98649.41
2023-04-07T11:37:27.777Z,98649.17
2023-04-07T11:40:00.266Z,98642.23
2023-04-07T11:42:34.127Z,98632.60
2023-04-07T11:45:04.662Z,98630.05
2023-04-07T11:47:37.932Z,98633.43
2023-04-07T11:50:08.722Z,98623.55
2023-04-07T11:52:46.030Z,98626.22
2023-04-07T11:55:24.166Z,98624.07
2023-04-07T11:57:53.794Z,98627.70
2023-04-07T12:00:22.944Z,98628.89
2023-04-07T12:02:53.721Z,98619.56
2023-04-07T12:05:25.293Z,98621.30
2023-04-07T12:07:56.372Z,98623.95
2023-04-07T12:10:29.807Z,98612.12
2023-04-07T12:12:59.836Z,98614.27
2023-04-07T12:15:29.134Z,98613.41
2023-04-07T12:17:58.556Z,98616.48
2023-04-07T12:20:28.320Z,98607.88
2023-04-07T12:23:00.893Z,98606.09
2023-04-07T12:25:30.548Z,98599.30
2023-04-07T12:27:59.524Z,98602.77
2023-04-07T12:30:28.583Z,98604.96
2023-04-07T12:32:58.896Z,98596.92
2023-04-07T12:35:27.996Z,98594.48
2023-04-07T12:37:59.299Z,98595.06
2023-04-07T12:40:30.090Z,98588.77
2023-04-07T12:42:59.781Z,98578.84
2023-04-07T12:45:31.159Z,98577.55
2023-04-07T12:48:01.425Z,98567.14
2023-04-07T12:50:30.991Z,98581.95
2023-04-07T12:53:00.394Z,98579.91
2023-04-07T12:55:30.133Z,98583.63
2023-04-07T12:57:58.942Z,98577.46
2023-04-07T13:00:28.310Z,98574.34
2023-04-07T13:02:58.221Z,98567.40
2023-04-07T13:05:29.742Z,98569.17
2023-04-07T13:08:00.572Z,98564.70
2023-04-07T13:10:30.049Z,98567.77
2023-04-07T13:12:59.908Z,98560.67
2023-04-07T13:15:30.101Z,98565.05
2023-04-07T13:18:00.516Z,98565.56
2023-04-07T13:20:32.681Z,98562.52
2023-04-07T13:23:08.390Z,98560.68
2023-04-07T13:25:40.895Z,98548.16
2023-04-07T13:28:10.851Z,98553.49
2023-04-07T13:30:42.243Z,98550.15
2023-04-07T13:33:13.738Z,98551.19
2023-04-07T13:35:46.384Z,98559.79
2023-04-07T13:38:16.896Z,98557.36
2023-04-07T13:40:48.397Z,98562.11
2023-04-07T13:43:19.250Z,98558.45
2023-04-07T13:45:50.482Z,98554.30
2023-04-07T13:48:22.172Z,98545.96
2023-04-07T13:50:53.247Z,98550.40
2023-04-07T13:53:23.914Z,98542.89
2023-04-07T13:55:53.589Z,98540.75
2023-04-07T13:58:23.057Z,98541.85
2023-04-07T14:00:52.575Z,98542.45
2023-04-07T14:03:22.052Z,98530.04
2023-04-07T14:05:51.167Z,98523.02
2023-04-07T14:08:24.031Z,98527.61
2023-04-07T14:10:53.397Z,98523.09
2023-04-07T14:13:24.768Z,98515.44
2023-04-07T14:15:54.584Z,98509.36
2023-04-07T14:18:24.682Z,98517.45
2023-04-07T14:20:55.026Z,98517.55
2023-04-07T14:23:36.522Z,98526.19
2023-04-07T14:26:09.978Z,98520.15
2023-04-07T14:28:39.862Z,98518.30
2023-04-07T14:31:20.055Z,98515.77
2023-04-07T14:33:52.183Z,98515.16
2023-04-07T14:36:25.668Z,98516.48
2023-04-07T14:38:56.030Z,98514.52
2023-04-07T14:41:25.704Z,98509.45
2023-04-07T14:43:57.962Z,98508.52
2023-04-07T14:46:28.369Z,98504.32
2023-04-07T14:48:58.914Z,98506.97
2023-04-07T14:51:29.132Z,98500.65
2023-04-07T14:53:58.899Z,98505.16
2023-04-07T14:56:29.199Z,98507.09
2023-04-07T14:58:59.928Z,98499.94
2023-04-07T15:01:31.637Z,98505.28
2023-04-07T15:04:02.425Z,98502.50
2023-04-07T15:06:34.184Z,98505.00
2023-04-07T15:09:05.042Z,98504.70
2023-04-07T15:11:35.701Z,98504.38
2023-04-07T15:14:07.456Z,98502.16
2023-04-07T15:16:37.242Z,98502.78
2023-04-07T15:19:08.222Z,98498.29
2023-04-07T15:21:37.761Z,98501.95
2023-04-07T15:24:08.313Z,98493.88
2023-04-07T15:26:39.658Z,98502.63
2023-04-07T15:29:09.686Z,98495.87
2023-04-07T15:31:40.046Z,98501.98
2023-04-07T15:34:10.813Z,98497.55
2023-04-07T15:36:41.041Z,98497.48
2023-04-07T15:39:11.724Z,98497.75
2023-04-07T15:41:42.665Z,98491.84
2023-04-07T15:44:19.349Z,98494.53
2023-04-07T15:46:49.124Z,98495.95
2023-04-07T15:49:24.300Z,98492.98
2023-04-07T15:51:56.491Z,98492.30
2023-04-07T15:54:26.759Z,98487.55
2023-04-07T15:56:56.598Z,98489.78
2023-04-07T15:59:28.325Z,98489.08
2023-04-07T16:01:58.768Z,98488.41
2023-04-07T16:04:29.809Z,98486.91
2023-04-07T16:07:00.294Z,98489.81
2023-04-07T16:09:30.503Z,98492.88
2023-04-07T16:12:01.141Z,98484.77
2023-04-07T16:14:31.810Z,98484.34
2023-04-07T16:17:02.351Z,98488.07
2023-04-07T16:19:32.013Z,98486.27
2023-04-07T16:22:01.371Z,98489.81
2023-04-07T16:24:31.442Z,98488.73
2023-04-07T16:27:04.083Z,98482.59
2023-04-07T16:29:33.702Z,98484.25
2023-04-07T16:32:05.102Z,98483.13
2023-04-07T16:34:37.428Z,98489.65
2023-04-07T16:37:06.850Z,98493.84
2023-04-07T16:39:36.687Z,98495.20
2023-04-07T16:42:06.051Z,98495.52
2023-04-07T16:44:35.602Z,98495.74
2023-04-07T16:47:05.683Z,98496.46
2023-04-07T16:49:35.451Z,98496.95
2023-04-07T16:52:04.751Z,98493.50
2023-04-07T16:54:41.284Z,98492.23
2023-04-07T16:57:12.899Z,98497.25
2023-04-07T16:59:42.071Z,98501.27
2023-04-07T17:02:13.588Z,98498.24
2023-04-07T17:04:44.719Z,98501.23
2023-04-07T17:07:16.495Z,98505.73
2023-04-07T17:09:47.827Z,98506.20
2023-04-07T17:12:17.478Z,98509.27
2023-04-07T17:14:47.252Z,98514.71
2023-04-07T17:17:16.595Z,98521.45
2023-04-07T17:19:45.468Z,98528.17
2023-04-07T17:22:15.625Z,98531.30
2023-04-07T17:24:45.776Z,98537.02
2023-04-07T17:27:15.664Z,98542.91
2023-04-07T17:29:44.961Z,98549.19
2023-04-07T17:32:14.607Z,98548.70
2023-04-07T17:34:43.577Z,98552.16
2023-04-07T17:37:13.040Z,98553.59
2023-04-07T17:39:42.091Z,98556.16
2023-04-07T17:42:11.544Z,98560.83
2023-04-07T17:44:41.116Z,98566.88
2023-04-07T17:47:10.492Z,98570.52
2023-04-07T17:49:40.103Z,98575.77
2023-04-07T17:52:09.415Z,98581.08
2023-04-07T17:54:38.726Z,98584.95
2023-04-07T17:57:08.758Z,98592.69
2023-04-07T17:59:38.571Z,98598.77
2023-04-07T18:02:11.566Z,98600.73
2023-04-07T18:04:41.717Z,98605.01
2023-04-07T18:07:13.524Z,98604.02
2023-04-07T18:09:43.625Z,98602.20
2023-04-07T18:12:13.847Z,98601.07
2023-04-07T18:14:43.699Z,98604.63
2023-04-07T18:17:12.805Z,98607.81
2023-04-07T18:19:41.888Z,98613.85
2023-04-07T18:22:11.068Z,98616.98
2023-04-07T18:24:40.797Z,98624.23
2023-04-07T18:27:10.565Z,98626.23
2023-04-07T18:29:40.631Z,98623.31
2023-04-07T18:32:09.900Z,98624.09
2023-04-07T18:34:41.214Z,98623.48
2023-04-07T18:37:10.498Z,98617.55
2023-04-07T18:39:40.025Z,98612.81
2023-04-07T18:42:09.684Z,98612.34
2023-04-07T18:44:38.920Z,98614.69
2023-04-07T18:47:08.811Z,98614.73
2023-04-07T18:49:40.220Z,98616.61
2023-04-07T18:52:11.703Z,98622.02
2023-04-07T18:54:41.898Z,98629.33
2023-04-07T18:57:12.266Z,98628.23
2023-04-07T18:59:41.948Z,98633.67
2023-04-07T19:02:13.251Z,98639.02
2023-04-07T19:04:42.694Z,98643.83
2023-04-07T19:07:13.784Z,98644.87
2023-04-07T19:09:43.281Z,98648.47
2023-04-07T19:12:12.706Z,98656.15
2023-04-07T19:14:42.596Z,98661.13
2023-04-07T19:17:13.607Z,98661.58
2023-04-07T19:19:43.669Z,98667.58
2023-04-07T19:22:13.828Z,98660.19
2023-04-07T19:24:44.061Z,98668.73
2023-04-07T19:27:15.560Z,98666.42
2023-04-07T19:29:44.808Z,98663.77
2023-04-07T19:32:15.703Z,98665.89
2023-04-07T19:34:46.309Z,98665.42
2023-04-07T19:37:17.405Z,98664.70
2023-04-07T19:40:02.207Z,98665.44
2023-04-07T19:42:33.630Z,98666.15
2023-04-07T19:45:06.246Z,98667.92
2023-04-07T19:47:39.233Z,98664.40
2023-04-07T19:50:10.797Z,98660.14
2023-04-07T19:52:43.890Z,98657.09
2023-04-07T19:55:14.805Z,98651.61
2023-04-07T19:57:45.211Z,98649.36
2023-04-07T20:00:17.962Z,98646.40
2023-04-07T20:02:48.540Z,98645.13
2023-04-07T20:05:20.551Z,98648.40
2023-04-07T20:07:49.874Z,98649.90
2023-04-07T20:10:19.807Z,98648.69
2023-04-07T20:12:49.758Z,98645.64
2023-04-07T20:15:19.853Z,98650.85
2023-04-07T20:17:49.690Z,98648.31
2023-04-07T20:20:19.943Z,98651.25
2023-04-07T20:22:50.504Z,98650.55
2023-04-07T20:25:21.417Z,98647.17
2023-04-07T20:27:51.470Z,98650.48
2023-04-07T20:30:22.883Z,98649.88
2023-04-07T20:32:53.800Z,98646.44
2023-04-07T20:35:23.837Z,98645.39
2023-04-07T20:37:53.665Z,98643.66
2023-04-07T20:40:23.279Z,98643.30
2023-04-07T20:42:54.174Z,98645.92
2023-04-07T20:45:25.200Z,98639.90
2023-04-07T20:47:55.077Z,98638.81
2023-04-07T20:50:25.188Z,98638.21
2023-04-07T20:52:54.252Z,98636.78
2023-04-07T20:55:24.381Z,98632.98
2023-04-07T20:57:55.453Z,98633.50
2023-04-07T21:00:25.134Z,98638.50
2023-04-07T21:02:55.673Z,98639.13
2023-04-07T21:05:25.493Z,98635.88
2023-04-07T21:07:56.083Z,98632.92
2023-04-07T21:10:26.896Z,98635.92
2023-04-07T21:12:57.265Z,98634.30
2023-04-07T21:15:27.013Z,98633.40
2023-04-07T21:17:58.450Z,98631.57
2023-04-07T21:20:29.762Z,98620.68
2023-04-07T21:23:01.306Z,98620.49
2023-04-07T21:25:33.263Z,98617.44
2023-04-07T21:28:04.435Z,98622.56
2023-04-07T21:30:34.127Z,98620.73
2023-04-07T21:33:04.267Z,98617.06
2023-04-07T21:35:34.246Z,98623.55
2023-04-07T21:38:03.328Z,98628.38
2023-04-07T21:40:32.785Z,98628.55
2023-04-07T21:43:02.795Z,98626.16
2023-04-07T21:45:32.706Z,98621.36
2023-04-07T21:48:02.514Z,98621.19
2023-04-07T21:50:32.107Z,98618.94
2023-04-07T21:53:01.708Z,98616.83
2023-04-07T21:55:30.825Z,98614.42
2023-04-07T21:58:00.287Z,98616.05
2023-04-07T22:00:29.552Z,98614.47
2023-04-07T22:02:59.505Z,98615.63
2023-04-07T22:05:28.612Z,98618.76
2023-04-07T22:07:58.946Z,98614.96
2023-04-07T22:10:27.960Z,98612.08
2023-04-07T22:12:57.889Z,98604.15
2023-04-07T22:15:28.009Z,98600.19
2023-04-07T22:17:58.660Z,98597.90
2023-04-07T22:20:28.206Z,98595.47
2023-04-07T22:22:58.336Z,98592.39
2023-04-07T22:25:27.831Z,98589.48
2023-04-07T22:27:57.456Z,98583.20
2023-04-07T22:30:26.533Z,98583.05
2023-04-07T22:32:56.379Z,98584.89
2023-04-07T22:35:26.058Z,98586.54
2023-04-07T22:37:56.050Z,98591.50
2023-04-07T22:40:25.296Z,98593.44
2023-04-07T22:42:54.576Z,98598.97
2023-04-07T22:45:24.253Z,98593.62
2023-04-07T22:47:53.681Z,98597.66
2023-04-07T22:50:24.564Z,98595.49
2023-04-07T22:52:54.755Z,98592.13
2023-04-07T22:55:24.280Z,98593.14
2023-04-07T22:57:53.992Z,98599.37
2023-04-07T23:00:23.665Z,98601.91
2023-04-07T23:02:53.132Z,98607.83
2023-04-07T23:05:22.963Z,98613.23
2023-04-07T23:07:53.852Z,98619.30
2023-04-07T23:10:23.205Z,98622.58
2023-04-07T23:12:54.313Z,98628.48
2023-04-07T23:15:24.376Z,98630.05
2023-04-07T23:17:53.902Z,98627.42
2023-04-07T23:20:23.125Z,98621.18
2023-04-07T23:22:52.590Z,98617.92
2023-04-07T23:25:22.344Z,98608.13
2023-04-07T23:27:52.581Z,98604.30
2023-04-07T23:30:21.918Z,98599.05
2023-04-07T23:32:51.569Z,98594.60
2023-04-07T23:35:21.599Z,98585.67
2023-04-07T23:37:50.770Z,98594.33
2023-04-07T23:40:19.857Z,98591.95
2023-04-07T23:42:48.635Z,98586.80
2023-04-07T23:45:20.543Z,98591.39
2023-04-07T23:47:49.934Z,98597.70
2023-04-07T23:50:18.903Z,98600.60
2023-04-07T23:52:47.918Z,98600.84
2023-04-07T23:55:17.176Z,98596.67
2023-04-07T23:57:46.871Z,98596.11
